createdAt,value
2023-04-19T00:01:41.832Z,2.03
2023-04-19T00:06:49.734Z,2.00
2023-04-19T00:11:57.688Z,2.03
2023-04-19T00:17:06.514Z,1.63
2023-04-19T00:22:14.835Z,2.80
2023-04-19T00:27:22.835Z,2.03
2023-04-19T00:32:30.804Z,2.27
2023-04-19T00:37:38.930Z,2.60
2023-04-19T00:42:48.868Z,2.17
2023-04-19T00:47:58.533Z,1.87
2023-04-19T00:53:06.984Z,2.53
2023-04-19T00:58:15.145Z,2.27
2023-04-19T01:03:23.155Z,2.70
2023-04-19T01:08:31.619Z,1.80
2023-04-19T01:13:39.964Z,2.53
2023-04-19T01:18:49.828Z,2.33
2023-04-19T01:23:57.637Z,2.00
2023-04-19T01:29:10.596Z,1.80
2023-04-19T01:34:19.392Z,1.60
2023-04-19T01:39:28.250Z,2.73
2023-04-19T01:44:37.306Z,1.73
2023-04-19T01:49:45.136Z,2.23
2023-04-19T01:54:52.656Z,2.43
2023-04-19T02:00:00.173Z,2.13
2023-04-19T02:05:09.150Z,2.30
2023-04-19T02:10:16.762Z,2.33
2023-04-19T02:15:25.558Z,1.87
2023-04-19T02:20:34.745Z,1.90
2023-04-19T02:25:44.050Z,2.03
2023-04-19T02:30:54.906Z,5.37
2023-04-19T02:36:02.525Z,1.90
2023-04-19T02:41:10.456Z,2.20
2023-04-19T02:46:19.639Z,1.87
2023-04-19T02:51:27.724Z,2.20
2023-04-19T02:56:35.866Z,2.00
2023-04-19T03:01:44.265Z,3.13
2023-04-19T03:06:52.759Z,1.90
2023-04-19T03:12:02.380Z,1.67
2023-04-19T03:17:10.312Z,3.87
2023-04-19T03:22:23.298Z,2.33
2023-04-19T03:27:32.603Z,2.23
2023-04-19T03:32:41.613Z,2.50
2023-04-19T03:37:51.164Z,2.60
2023-04-19T03:42:59.007Z,2.53
2023-04-19T03:48:08.395Z,2.43
2023-04-19T03:53:16.765Z,2.37
2023-04-19T03:58:24.916Z,3.73
2023-04-19T04:03:34.669Z,2.20
2023-04-19T04:08:44.594Z,2.27
2023-04-19T04:13:52.567Z,2.80
2023-04-19T04:19:02.705Z,2.43
2023-04-19T04:24:12.193Z,2.17
2023-04-19T04:29:21.704Z,2.50
2023-04-19T04:34:32.611Z,2.60
2023-04-19T04:39:43.507Z,1.80
2023-04-19T04:44:52.690Z,2.70
2023-04-19T04:50:01.264Z,1.90
2023-04-19T04:55:11.454Z,2.53
2023-04-19T05:00:21.073Z,2.77
2023-04-19T05:05:32.497Z,3.60
2023-04-19T05:10:41.929Z,3.83
2023-04-19T05:15:52.200Z,24.83
2023-04-19T05:21:00.992Z,7.97
2023-04-19T05:26:13.061Z,3.97
2023-04-19T05:31:22.968Z,2.83
2023-04-19T05:36:33.298Z,2.23
2023-04-19T05:41:41.698Z,2.20
2023-04-19T05:46:49.728Z,2.80
2023-04-19T05:51:59.208Z,1.90
2023-04-19T05:57:09.470Z,1.97
2023-04-19T06:02:18.423Z,1.87
2023-04-19T06:07:32.937Z,3.03
2023-04-19T06:12:36.813Z,2.47
2023-04-19T06:17:46.443Z,19.43
2023-04-19T06:22:54.316Z,32.87
2023-04-19T06:28:03.680Z,21.07
2023-04-19T06:33:12.985Z,26.93
2023-04-19T06:38:26.204Z,226.73
2023-04-19T06:43:33.998Z,88.63
2023-04-19T06:48:42.211Z,165.33
2023-04-19T06:53:51.801Z,70.73
2023-04-19T06:59:05.672Z,28.00
2023-04-19T07:04:16.335Z,69.03
2023-04-19T07:09:25.307Z,105.00
2023-04-19T07:14:33.307Z,97.07
2023-04-19T07:19:41.214Z,39.33
2023-04-19T07:24:49.502Z,143.07
2023-04-19T07:29:57.903Z,136.30
2023-04-19T07:35:06.519Z,226.93
2023-04-19T07:40:14.479Z,122.67
2023-04-19T07:45:22.224Z,388.70
2023-04-19T07:50:30.318Z,116.10
2023-04-19T07:55:38.270Z,9.47
2023-04-19T08:00:46.361Z,3.07
2023-04-19T08:05:54.935Z,3.40
2023-04-19T08:11:04.112Z,1.93
2023-04-19T08:16:51.766Z,1.93
2023-04-19T08:21:26.182Z,2.23
2023-04-19T08:26:32.236Z,1.70
2023-04-19T08:31:40.860Z,1.83
2023-04-19T08:37:00.206Z,3.33
2023-04-19T08:42:05.957Z,2.73
2023-04-19T08:47:09.082Z,1.63
2023-04-19T08:52:18.800Z,2.80
2023-04-19T08:57:26.715Z,1.63
2023-04-19T09:02:38.452Z,1.50
2023-04-19T09:07:48.660Z,1.60
2023-04-19T09:12:59.038Z,1.57
2023-04-19T09:18:10.399Z,1.47
2023-04-19T09:23:21.714Z,2.77
2023-04-19T09:28:30.712Z,1.70
2023-04-19T09:33:40.487Z,1.73
2023-04-19T09:38:51.179Z,1.67
2023-04-19T09:54:28.401Z,1.33
2023-04-19T09:59:36.581Z,1.13
2023-04-19T10:10:05.014Z,1.30
2023-04-19T10:15:10.080Z,1.67
2023-04-19T10:20:21.411Z,1.33
2023-04-19T10:25:33.022Z,1.97
2023-04-19T10:30:44.010Z,3.33
2023-04-19T10:35:54.417Z,1.23
2023-04-19T10:41:05.230Z,1.00
2023-04-19T10:46:15.802Z,1.20
2023-04-19T10:51:28.517Z,1.57
2023-04-19T10:56:36.323Z,1.33
2023-04-19T11:01:46.619Z,1.33
2023-04-19T11:06:54.122Z,1.20
2023-04-19T11:12:05.334Z,1.97
2023-04-19T11:17:16.623Z,1.30
2023-04-19T11:22:27.571Z,2.07
2023-04-19T11:27:40.173Z,1.67
2023-04-19T11:32:49.622Z,1.47
2023-04-19T11:38:03.763Z,1.37
2023-04-19T11:43:11.455Z,1.30
2023-04-19T11:48:19.731Z,1.30
2023-04-19T11:53:28.655Z,1.53
2023-04-19T11:58:40.875Z,1.40
2023-04-19T12:03:52.244Z,2.23
2023-04-19T12:09:00.554Z,1.20
2023-04-19T12:14:11.186Z,1.97
2023-04-19T12:19:21.920Z,1.50
2023-04-19T12:24:30.679Z,1.63
2023-04-19T12:29:39.145Z,2.20
2023-04-19T12:34:47.315Z,1.60
2023-04-19T12:39:56.516Z,1.63
2023-04-19T12:45:04.393Z,1.80
2023-04-19T12:50:13.788Z,1.47
2023-04-19T12:55:22.779Z,3.37
2023-04-19T13:00:31.175Z,2.00
2023-04-19T13:05:39.627Z,2.07
2023-04-19T13:10:48.169Z,2.23
2023-04-19T13:15:57.158Z,1.60
2023-04-19T13:21:08.332Z,2.40
2023-04-19T13:26:17.025Z,1.70
2023-04-19T13:31:26.177Z,1.47
2023-04-19T13:36:34.492Z,1.50
2023-04-19T13:41:43.631Z,1.73
2023-04-19T13:46:51.630Z,1.70
2023-04-19T13:51:59.718Z,1.70
2023-04-19T13:57:08.568Z,1.63
2023-04-19T14:02:16.590Z,1.70
2023-04-19T14:07:24.716Z,1.70
2023-04-19T14:12:34.556Z,1.80
2023-04-19T14:17:42.861Z,3.53
2023-04-19T14:22:51.045Z,1.70
2023-04-19T14:27:59.318Z,2.43
2023-04-19T14:33:08.716Z,2.13
2023-04-19T14:38:17.062Z,1.70
2023-04-19T14:43:25.071Z,2.13
2023-04-19T14:48:33.114Z,1.83
2023-04-19T14:53:41.953Z,1.53
2023-04-19T14:58:49.967Z,1.77
2023-04-19T15:03:59.361Z,2.47
2023-04-19T15:09:07.966Z,1.83
2023-04-19T15:14:17.157Z,1.90
2023-04-19T15:19:25.185Z,2.40
2023-04-19T15:24:34.300Z,1.83
2023-04-19T15:29:42.921Z,2.40
2023-04-19T15:34:52.303Z,1.70
2023-04-19T15:40:01.874Z,1.57
2023-04-19T15:45:10.300Z,3.03
2023-04-19T15:50:18.611Z,1.30
2023-04-19T15:55:26.914Z,1.40
2023-04-19T16:00:35.012Z,1.50
2023-04-19T16:05:43.725Z,2.50
2023-04-19T16:10:53.024Z,6.80
2023-04-19T16:16:02.209Z,3.10
2023-04-19T16:21:11.378Z,3.00
2023-04-19T16:26:20.066Z,5.93
2023-04-19T16:31:29.160Z,4.03
2023-04-19T16:36:39.853Z,2.93
2023-04-19T16:41:49.057Z,1.80
2023-04-19T16:46:57.957Z,1.73
2023-04-19T16:52:06.427Z,3.83
2023-04-19T16:57:14.642Z,3.90
2023-04-19T17:02:22.677Z,37.63
2023-04-19T17:07:33.300Z,2.47
2023-04-19T17:12:43.231Z,2.07
2023-04-19T17:17:51.242Z,2.20
2023-04-19T17:22:59.319Z,1.60
2023-04-19T17:28:07.132Z,1.50
2023-04-19T17:33:16.766Z,1.70
2023-04-19T17:38:26.935Z,28.97
2023-04-19T17:43:35.310Z,4.23
2023-04-19T17:48:44.230Z,1.87
2023-04-19T17:53:53.272Z,2.73
2023-04-19T17:59:03.137Z,2.77
2023-04-19T18:04:12.816Z,2.07
2023-04-19T18:09:20.760Z,1.67
2023-04-19T18:14:28.667Z,3.30
2023-04-19T18:19:37.987Z,2.87
2023-04-19T18:24:46.601Z,2.93
2023-04-19T18:29:54.202Z,2.20
2023-04-19T18:35:05.010Z,2.90
2023-04-19T18:40:13.846Z,2.17
2023-04-19T18:45:21.601Z,2.30
2023-04-19T18:50:29.759Z,4.97
2023-04-19T18:55:37.533Z,3.40
2023-04-19T19:00:51.021Z,4.23
2023-04-19T19:05:59.813Z,3.13
2023-04-19T19:11:32.972Z,4.30
2023-04-19T19:16:19.563Z,9.87
2023-04-19T19:21:28.070Z,3.07
2023-04-19T19:26:35.912Z,2.70
2023-04-19T19:31:45.399Z,2.10
2023-04-19T19:36:53.467Z,2.57
2023-04-19T19:42:05.998Z,2.50
2023-04-19T19:47:11.929Z,6.73
2023-04-19T19:52:21.003Z,8.33
2023-04-19T20:02:54.184Z,5.17
2023-04-19T20:13:00.380Z,36.10
2023-04-19T20:18:09.044Z,26.33
2023-04-19T20:23:17.783Z,6.00
2023-04-19T20:28:25.443Z,13.57
2023-04-19T20:33:33.170Z,51.37
2023-04-19T20:38:41.010Z,5.20
2023-04-19T20:43:48.926Z,3.33
2023-04-19T20:48:57.004Z,18.10
2023-04-19T20:54:04.972Z,8.53
2023-04-19T20:59:12.951Z,10.90
2023-04-19T21:04:21.121Z,13.10
2023-04-19T21:09:29.204Z,2.40
2023-04-19T21:14:37.153Z,10.13
2023-04-19T21:19:44.925Z,2.83
2023-04-19T21:24:52.850Z,28.10
2023-04-19T21:30:02.188Z,18.20
2023-04-19T21:35:10.289Z,4.40
2023-04-19T21:40:18.319Z,30.87
2023-04-19T21:45:27.179Z,8.97
2023-04-19T21:50:34.867Z,3.77
2023-04-19T21:55:43.797Z,5.27
2023-04-19T22:00:58.524Z,6.57
2023-04-19T22:06:07.889Z,3.77
2023-04-19T22:11:16.854Z,3.80
2023-04-19T22:16:26.302Z,3.33
2023-04-19T22:21:34.359Z,3.17
2023-04-19T22:26:44.443Z,2.80
2023-04-19T22:31:52.380Z,3.90
2023-04-19T22:37:00.306Z,3.13
2023-04-19T22:42:08.437Z,2.40
2023-04-19T22:47:17.039Z,3.47
2023-04-19T22:52:26.115Z,3.57
2023-04-19T22:57:34.159Z,3.40
2023-04-19T23:02:41.932Z,3.13
2023-04-19T23:07:51.429Z,3.33
2023-04-19T23:12:59.667Z,3.37
2023-04-19T23:18:08.299Z,5.57
2023-04-19T23:23:17.387Z,3.53
2023-04-19T23:28:25.516Z,3.10
2023-04-19T23:33:33.644Z,5.63
2023-04-19T23:38:41.530Z,3.37
2023-04-19T23:43:49.453Z,2.40
2023-04-19T23:48:58.423Z,2.97
2023-04-19T23:54:07.952Z,4.33
2023-04-19T23:59:16.071Z,4.03
